createdAt,value
2018-12-15T00:00:13.830Z,13.30
2018-12-15T00:02:41.681Z,15.08
2018-12-15T00:05:09.498Z,13.00
2018-12-15T00:07:37.329Z,13.62
2018-12-15T00:10:05.752Z,14.18
2018-12-15T00:12:33.439Z,13.53
2018-12-15T00:15:01.619Z,13.50
2018-12-15T00:17:29.385Z,13.03
2018-12-15T00:19:57.140Z,13.38
2018-12-15T00:22:24.947Z,14.18
2018-12-15T00:24:52.710Z,14.25
2018-12-15T00:27:20.451Z,14.53
2018-12-15T00:29:49.294Z,14.38
2018-12-15T00:32:17.152Z,13.45
2018-12-15T00:34:44.934Z,12.20
2018-12-15T00:37:12.699Z,14.63
2018-12-15T00:39:40.769Z,13.85
2018-12-15T00:42:08.658Z,13.20
2018-12-15T00:44:36.354Z,13.85
2018-12-15T00:47:05.141Z,12.68
2018-12-15T00:49:32.980Z,12.95
2018-12-15T00:52:00.717Z,14.15
2018-12-15T00:54:28.490Z,13.35
2018-12-15T00:56:56.207Z,15.10
2018-12-15T00:59:23.942Z,14.07
2018-12-15T01:01:52.007Z,13.20
2018-12-15T01:04:19.792Z,13.75
2018-12-15T01:06:48.665Z,16.62
2018-12-15T01:09:16.432Z,13.93
2018-12-15T01:11:44.188Z,13.90
2018-12-15T01:14:12.796Z,12.50
2018-12-15T01:16:40.670Z,16.10
2018-12-15T01:19:08.332Z,13.32
2018-12-15T01:21:36.122Z,13.38
2018-12-15T01:24:04.144Z,13.83
2018-12-15T01:26:31.934Z,13.58
2018-12-15T01:28:59.730Z,12.40
2018-12-15T01:31:27.523Z,13.95
2018-12-15T01:33:55.334Z,14.13
2018-12-15T01:36:23.176Z,13.60
2018-12-15T01:38:50.908Z,15.25
2018-12-15T01:41:18.683Z,14.20
2018-12-15T01:43:46.451Z,15.45
2018-12-15T01:46:14.245Z,14.85
2018-12-15T01:48:42.088Z,14.10
2018-12-15T01:51:09.917Z,15.80
2018-12-15T01:53:37.645Z,15.00
2018-12-15T01:56:05.404Z,13.85
2018-12-15T01:58:33.118Z,15.32
2018-12-15T02:01:00.924Z,14.58
2018-12-15T02:03:29.428Z,15.50
2018-12-15T02:05:57.989Z,14.53
2018-12-15T02:08:25.801Z,14.13
2018-12-15T02:10:54.407Z,15.28
2018-12-15T02:13:22.172Z,15.88
2018-12-15T02:15:49.981Z,15.98
2018-12-15T02:18:17.766Z,15.40
2018-12-15T02:20:45.483Z,13.83
2018-12-15T02:23:13.170Z,14.53
2018-12-15T02:25:40.914Z,15.63
2018-12-15T02:28:09.483Z,15.65
2018-12-15T02:30:37.231Z,14.30
2018-12-15T02:33:04.977Z,14.75
2018-12-15T02:35:32.921Z,14.45
2018-12-15T02:38:00.683Z,14.78
2018-12-15T02:40:28.966Z,16.95
2018-12-15T02:42:56.688Z,14.45
2018-12-15T02:45:24.590Z,14.75
2018-12-15T02:47:52.461Z,15.00
2018-12-15T02:50:20.325Z,15.88
2018-12-15T02:52:48.783Z,14.30
2018-12-15T02:55:16.573Z,14.43
2018-12-15T02:57:44.430Z,15.25
2018-12-15T03:00:12.273Z,15.35
2018-12-15T03:02:40.000Z,15.08
2018-12-15T03:05:08.597Z,14.43
2018-12-15T03:07:36.376Z,16.55
2018-12-15T03:10:05.873Z,15.45
2018-12-15T03:12:33.587Z,14.40
2018-12-15T03:15:01.329Z,14.70
2018-12-15T03:17:29.693Z,14.00
2018-12-15T03:20:00.484Z,15.35
2018-12-15T03:22:28.480Z,14.30
2018-12-15T03:24:57.131Z,16.67
2018-12-15T03:27:25.393Z,17.17
2018-12-15T03:29:53.251Z,15.93
2018-12-15T03:32:21.089Z,17.23
2018-12-15T03:34:48.904Z,17.07
2018-12-15T03:37:16.791Z,16.95
2018-12-15T03:39:44.620Z,17.65
2018-12-15T03:42:12.451Z,15.75
2018-12-15T03:44:40.193Z,15.08
2018-12-15T03:47:08.071Z,17.27
2018-12-15T03:49:39.131Z,18.00
2018-12-15T03:52:09.764Z,18.23
2018-12-15T03:54:37.554Z,17.52
2018-12-15T03:57:05.301Z,16.80
2018-12-15T03:59:33.356Z,16.50
2018-12-15T04:02:02.205Z,16.35
2018-12-15T04:04:31.797Z,16.12
2018-12-15T04:06:59.580Z,17.37
2018-12-15T04:09:27.381Z,16.52
2018-12-15T04:11:55.551Z,19.60
2018-12-15T04:14:23.244Z,16.05
2018-12-15T04:16:50.981Z,16.60
2018-12-15T04:19:18.698Z,17.73
2018-12-15T04:21:46.494Z,17.02
2018-12-15T04:24:21.519Z,18.17
2018-12-15T04:26:49.334Z,19.40
2018-12-15T04:29:17.085Z,18.25
2018-12-15T04:31:44.880Z,20.77
2018-12-15T04:34:12.610Z,18.10
2018-12-15T04:36:40.915Z,16.82
2018-12-15T04:39:10.147Z,19.10
2018-12-15T04:41:37.827Z,18.32
2018-12-15T04:44:05.883Z,18.27
2018-12-15T04:46:33.574Z,16.45
2018-12-15T04:49:01.306Z,16.87
2018-12-15T04:51:29.042Z,18.65
2018-12-15T04:53:56.749Z,16.45
2018-12-15T04:56:24.798Z,17.05
2018-12-15T04:58:52.492Z,17.85
2018-12-15T05:01:20.261Z,17.67
2018-12-15T05:03:47.998Z,18.40
2018-12-15T05:06:16.790Z,17.37
2018-12-15T05:08:44.526Z,18.17
2018-12-15T05:11:12.919Z,15.55
2018-12-15T05:13:41.591Z,16.90
2018-12-15T05:16:09.317Z,17.40
2018-12-15T05:18:37.009Z,17.35
2018-12-15T05:21:04.682Z,17.02
2018-12-15T05:23:32.472Z,16.10
2018-12-15T05:26:00.187Z,17.23
2018-12-15T05:28:27.981Z,16.80
2018-12-15T05:30:55.770Z,16.27
2018-12-15T05:33:23.484Z,17.65
2018-12-15T05:35:51.335Z,16.82
2018-12-15T05:38:19.010Z,17.95
2018-12-15T05:40:46.787Z,17.75
2018-12-15T05:43:14.501Z,17.95
2018-12-15T05:45:42.259Z,17.40
2018-12-15T05:48:09.927Z,18.77
2018-12-15T05:50:37.701Z,18.10
2018-12-15T05:53:05.509Z,19.17
2018-12-15T05:55:33.247Z,18.05
2018-12-15T05:58:00.987Z,17.60
2018-12-15T06:00:28.617Z,18.35
2018-12-15T06:02:56.929Z,19.20
2018-12-15T06:05:24.722Z,16.30
2018-12-15T06:07:52.609Z,18.40
2018-12-15T06:10:22.102Z,18.32
2018-12-15T06:12:49.789Z,17.73
2018-12-15T06:15:17.537Z,18.55
2018-12-15T06:17:45.245Z,19.65
2018-12-15T06:20:13.006Z,19.40
2018-12-15T06:22:41.504Z,17.32
2018-12-15T06:25:09.314Z,18.87
2018-12-15T06:27:37.099Z,18.20
2018-12-15T06:30:06.760Z,19.23
2018-12-15T06:32:34.549Z,18.82
2018-12-15T06:35:02.850Z,19.27
2018-12-15T06:37:30.529Z,18.00
2018-12-15T06:39:59.090Z,19.02
2018-12-15T06:42:26.745Z,17.77
2018-12-15T06:44:54.518Z,17.45
2018-12-15T06:47:22.247Z,17.90
2018-12-15T06:49:50.090Z,18.30
2018-12-15T06:52:17.817Z,18.87
2018-12-15T06:54:46.457Z,18.05
2018-12-15T06:57:14.261Z,15.83
2018-12-15T06:59:42.090Z,17.98
2018-12-15T07:02:09.886Z,19.12
2018-12-15T07:04:37.662Z,19.50
2018-12-15T07:07:05.367Z,19.10
2018-12-15T07:09:33.097Z,19.60
2018-12-15T07:12:00.887Z,18.98
2018-12-15T07:14:28.618Z,19.42
2018-12-15T07:16:56.364Z,19.50
2018-12-15T07:19:24.130Z,17.05
2018-12-15T07:21:51.889Z,19.52
2018-12-15T07:24:19.575Z,18.07
2018-12-15T07:26:47.304Z,19.23
2018-12-15T07:29:15.097Z,20.15
2018-12-15T07:31:42.843Z,19.37
2018-12-15T07:34:10.550Z,19.07
2018-12-15T07:36:38.330Z,19.20
2018-12-15T07:39:08.302Z,20.35
2018-12-15T07:41:36.142Z,19.27
2018-12-15T07:44:03.920Z,19.90
2018-12-15T07:46:32.128Z,17.05
2018-12-15T07:48:59.896Z,18.55
2018-12-15T07:51:27.755Z,15.95
2018-12-15T07:53:55.516Z,18.95
2018-12-15T07:56:25.437Z,19.82
2018-12-15T07:58:53.217Z,17.32
2018-12-15T08:01:21.825Z,17.30
2018-12-15T08:03:49.578Z,17.15
2018-12-15T08:06:17.596Z,21.23
2018-12-15T08:08:45.298Z,17.95
2018-12-15T08:11:18.648Z,17.42
2018-12-15T08:13:47.757Z,17.95
2018-12-15T08:16:15.540Z,17.57
2018-12-15T08:18:43.421Z,19.95
2018-12-15T08:21:11.169Z,20.88
2018-12-15T08:23:38.838Z,19.35
2018-12-15T08:26:07.458Z,19.27
2018-12-15T08:28:35.194Z,17.92
2018-12-15T08:31:03.553Z,19.20
2018-12-15T08:33:31.227Z,18.35
2018-12-15T08:35:59.050Z,19.77
2018-12-15T08:38:26.808Z,17.80
2018-12-15T08:40:54.543Z,18.45
2018-12-15T08:43:22.304Z,19.48
2018-12-15T08:45:50.199Z,18.90
2018-12-15T08:48:17.966Z,18.85
2018-12-15T08:50:45.981Z,18.90
2018-12-15T08:53:13.722Z,19.20
2018-12-15T08:55:41.498Z,18.32
2018-12-15T08:58:10.008Z,18.80
2018-12-15T09:00:38.026Z,20.30
2018-12-15T09:03:06.654Z,19.73
2018-12-15T09:05:34.398Z,19.25
2018-12-15T09:08:02.353Z,19.65
2018-12-15T09:10:30.053Z,21.80
2018-12-15T09:12:57.860Z,18.10
2018-12-15T09:15:25.630Z,19.25
2018-12-15T09:17:54.181Z,20.23
2018-12-15T09:20:21.929Z,22.05
2018-12-15T09:22:49.751Z,21.02
2018-12-15T09:25:17.545Z,20.25
2018-12-15T09:27:45.277Z,19.35
2018-12-15T09:30:13.028Z,22.17
2018-12-15T09:32:40.762Z,21.55
2018-12-15T09:35:08.474Z,20.12
2018-12-15T09:37:36.285Z,21.17
2018-12-15T09:40:05.611Z,19.52
2018-12-15T09:42:33.395Z,21.12
2018-12-15T09:45:01.774Z,20.08
2018-12-15T09:47:29.512Z,21.82
2018-12-15T09:49:58.664Z,20.02
2018-12-15T09:52:27.471Z,20.72
2018-12-15T09:54:55.327Z,21.82
2018-12-15T09:57:23.080Z,21.77
2018-12-15T09:59:50.891Z,19.12
2018-12-15T10:02:18.843Z,19.48
2018-12-15T10:04:46.596Z,21.68
2018-12-15T10:07:14.350Z,20.70
2018-12-15T10:09:42.178Z,19.80
2018-12-15T10:12:09.897Z,21.57
2018-12-15T10:14:37.661Z,23.12
2018-12-15T10:17:05.832Z,19.48
2018-12-15T10:19:34.403Z,20.57
2018-12-15T10:22:02.201Z,20.45
2018-12-15T10:24:29.954Z,21.30
2018-12-15T10:26:57.800Z,22.58
2018-12-15T10:29:31.247Z,22.85
2018-12-15T10:35:01.605Z,22.60
2018-12-15T10:37:30.068Z,20.85
2018-12-15T10:39:58.581Z,22.52
2018-12-15T10:42:26.379Z,20.82
2018-12-15T10:44:54.203Z,21.00
2018-12-15T10:47:22.856Z,24.60
2018-12-15T10:49:50.688Z,21.87
2018-12-15T10:52:18.471Z,20.10
2018-12-15T10:54:46.317Z,19.27
2018-12-15T10:57:14.196Z,21.50
2018-12-15T10:59:41.914Z,19.05
2018-12-15T11:02:10.060Z,18.57
2018-12-15T11:04:38.072Z,23.10
2018-12-15T11:07:05.797Z,21.80
2018-12-15T11:09:37.428Z,21.87
2018-12-15T11:12:05.242Z,20.00
2018-12-15T11:14:33.112Z,20.43
2018-12-15T11:17:00.869Z,19.67
2018-12-15T11:19:36.925Z,21.33
2018-12-15T11:22:00.375Z,20.45
2018-12-15T11:24:28.269Z,19.77
2018-12-15T11:26:57.669Z,17.77
2018-12-15T11:29:25.461Z,21.48
2018-12-15T11:31:53.947Z,20.45
2018-12-15T11:34:21.704Z,22.82
2018-12-15T11:36:49.534Z,20.30
2018-12-15T11:39:17.294Z,20.37
2018-12-15T11:41:46.958Z,21.40
2018-12-15T11:44:14.689Z,21.87
2018-12-15T11:46:42.459Z,21.60
2018-12-15T11:49:10.190Z,23.67
2018-12-15T11:51:41.622Z,23.35
2018-12-15T11:54:09.485Z,22.35
2018-12-15T11:56:38.110Z,21.20
2018-12-15T11:59:05.851Z,21.10
2018-12-15T12:01:33.692Z,20.92
2018-12-15T12:04:01.632Z,21.45
2018-12-15T12:06:29.401Z,22.85
2018-12-15T12:08:57.187Z,23.47
2018-12-15T12:11:24.882Z,21.50
2018-12-15T12:13:52.652Z,21.40
2018-12-15T12:16:20.358Z,23.05
2018-12-15T12:18:48.103Z,21.02
2018-12-15T12:21:16.070Z,22.65
2018-12-15T12:23:43.786Z,22.37
2018-12-15T12:26:11.903Z,22.77
2018-12-15T12:28:39.652Z,20.17
2018-12-15T12:31:07.529Z,23.47
2018-12-15T12:33:35.381Z,21.10
2018-12-15T12:36:03.163Z,22.40
2018-12-15T12:38:30.999Z,24.50
2018-12-15T12:40:58.661Z,22.93
2018-12-15T12:43:26.396Z,22.80
2018-12-15T12:45:54.170Z,22.67
2018-12-15T12:48:23.577Z,22.93
2018-12-15T12:50:51.322Z,20.97
2018-12-15T12:53:19.118Z,22.17
2018-12-15T12:55:46.857Z,21.15
2018-12-15T12:58:14.721Z,23.42
2018-12-15T13:00:42.544Z,23.00
2018-12-15T13:03:10.416Z,23.42
2018-12-15T13:05:38.224Z,22.80
2018-12-15T13:08:06.690Z,22.13
2018-12-15T13:10:35.653Z,22.95
2018-12-15T13:13:04.060Z,22.60
2018-12-15T13:15:31.822Z,21.42
2018-12-15T13:17:59.565Z,22.25
2018-12-15T13:20:27.338Z,22.37
2018-12-15T13:22:55.179Z,22.35
2018-12-15T13:25:22.957Z,21.97
2018-12-15T13:27:50.743Z,22.13
2018-12-15T13:30:19.781Z,21.95
2018-12-15T13:32:47.532Z,21.95
2018-12-15T13:35:15.262Z,21.68
2018-12-15T13:37:43.015Z,23.75
2018-12-15T13:40:10.818Z,24.55
2018-12-15T13:42:38.671Z,21.95
2018-12-15T13:45:06.695Z,23.20
2018-12-15T13:47:34.529Z,22.62
2018-12-15T13:50:02.391Z,20.40
2018-12-15T13:52:30.209Z,22.25
2018-12-15T13:54:57.903Z,20.68
2018-12-15T13:57:26.578Z,21.27
2018-12-15T13:59:54.342Z,21.95
2018-12-15T14:02:22.208Z,22.62
2018-12-15T14:04:49.986Z,19.05
2018-12-15T14:07:17.744Z,23.25
2018-12-15T14:09:45.419Z,20.43
2018-12-15T14:12:13.243Z,19.98
2018-12-15T14:14:41.076Z,20.85
2018-12-15T14:17:08.781Z,22.35
2018-12-15T14:19:36.608Z,21.07
2018-12-15T14:22:05.095Z,21.42
2018-12-15T14:24:32.836Z,21.27
2018-12-15T14:27:00.606Z,21.75
2018-12-15T14:29:28.350Z,22.00
2018-12-15T14:31:56.076Z,21.40
2018-12-15T14:34:23.819Z,20.72
2018-12-15T14:36:51.499Z,20.40
2018-12-15T14:39:19.259Z,22.13
2018-12-15T14:41:47.074Z,20.00
2018-12-15T14:44:15.034Z,21.87
2018-12-15T14:46:42.775Z,19.45
2018-12-15T14:49:10.541Z,21.17
2018-12-15T14:51:38.285Z,22.50
2018-12-15T14:54:06.839Z,21.48
2018-12-15T14:56:34.606Z,20.88
2018-12-15T14:59:02.396Z,23.05
2018-12-15T15:01:30.279Z,22.40
2018-12-15T15:03:58.109Z,23.18
2018-12-15T15:06:25.973Z,20.25
2018-12-15T15:08:53.872Z,19.57
2018-12-15T15:11:22.458Z,21.50
2018-12-15T15:13:50.307Z,22.25
2018-12-15T15:16:18.873Z,22.17
2018-12-15T15:18:46.582Z,19.87
2018-12-15T15:21:14.418Z,22.87
2018-12-15T15:23:42.255Z,23.90
2018-12-15T15:26:10.095Z,21.20
2018-12-15T15:28:37.814Z,20.30
2018-12-15T15:31:05.566Z,21.10
2018-12-15T15:33:34.017Z,21.48
2018-12-15T15:36:01.719Z,21.33
2018-12-15T15:38:29.501Z,22.55
2018-12-15T15:40:57.261Z,20.85
2018-12-15T15:43:25.089Z,22.35
2018-12-15T15:45:53.703Z,21.57
2018-12-15T15:48:22.255Z,20.75
2018-12-15T15:50:50.030Z,20.60
2018-12-15T15:53:18.076Z,20.65
2018-12-15T15:55:46.978Z,21.27
2018-12-15T15:58:14.849Z,21.42
2018-12-15T16:00:43.635Z,22.62
2018-12-15T16:03:11.451Z,20.85
2018-12-15T16:05:39.198Z,23.30
2018-12-15T16:08:07.017Z,22.70
2018-12-15T16:10:35.862Z,21.23
2018-12-15T16:13:03.795Z,21.82
2018-12-15T16:15:32.378Z,21.42
2018-12-15T16:18:00.148Z,20.82
2018-12-15T16:20:27.850Z,20.00
2018-12-15T16:22:55.831Z,21.27
2018-12-15T16:25:23.595Z,22.42
2018-12-15T16:27:51.375Z,20.37
2018-12-15T16:30:19.187Z,22.40
2018-12-15T16:32:46.958Z,22.20
2018-12-15T16:35:14.806Z,23.38
2018-12-15T16:37:42.697Z,21.25
2018-12-15T16:40:10.460Z,20.70
2018-12-15T16:42:38.300Z,20.60
2018-12-15T16:45:07.684Z,20.43
2018-12-15T16:47:35.516Z,20.50
2018-12-15T16:50:06.103Z,19.77
2018-12-15T16:52:33.961Z,22.00
2018-12-15T16:55:02.499Z,21.62
2018-12-15T16:57:30.250Z,20.12
2018-12-15T16:59:58.012Z,20.45
2018-12-15T17:02:25.717Z,20.15
2018-12-15T17:04:55.177Z,18.73
2018-12-15T17:07:22.889Z,18.62
2018-12-15T17:09:50.724Z,19.30
2018-12-15T17:12:18.433Z,18.92
2018-12-15T17:14:46.122Z,18.82
2018-12-15T17:17:13.913Z,20.12
2018-12-15T17:19:41.670Z,21.82
2018-12-15T17:22:10.344Z,18.62
2018-12-15T17:24:38.041Z,21.55
2018-12-15T17:27:05.818Z,21.15
2018-12-15T17:29:33.612Z,19.62
2018-12-15T17:32:01.362Z,20.68
2018-12-15T17:34:29.146Z,21.25
2018-12-15T17:36:56.928Z,20.52
2018-12-15T17:39:24.789Z,19.27
2018-12-15T17:41:53.802Z,20.48
2018-12-15T17:44:21.524Z,19.70
2018-12-15T17:46:49.282Z,20.30
2018-12-15T17:49:17.088Z,22.40
2018-12-15T17:51:44.894Z,19.48
2018-12-15T17:54:12.617Z,21.20
2018-12-15T17:56:40.367Z,22.13
2018-12-15T17:59:08.094Z,21.70
2018-12-15T18:01:40.616Z,20.50
2018-12-15T18:04:08.346Z,18.70
2018-12-15T18:06:36.169Z,21.40
2018-12-15T18:09:06.421Z,20.37
2018-12-15T18:11:34.293Z,20.37
2018-12-15T18:14:02.068Z,22.80
2018-12-15T18:16:31.022Z,22.25
2018-12-15T18:18:58.977Z,20.02
2018-12-15T18:21:26.796Z,20.60
2018-12-15T18:23:55.523Z,18.27
2018-12-15T18:26:23.314Z,21.27
2018-12-15T18:28:52.093Z,22.05
2018-12-15T18:31:19.863Z,23.05
2018-12-15T18:33:47.602Z,18.62
2018-12-15T18:36:15.345Z,21.02
2018-12-15T18:38:43.141Z,20.10
2018-12-15T18:41:10.951Z,21.30
2018-12-15T18:43:38.634Z,18.27
2018-12-15T18:46:06.419Z,19.90
2018-12-15T18:48:34.137Z,21.17
2018-12-15T18:51:02.868Z,21.48
2018-12-15T18:53:30.588Z,21.85
2018-12-15T18:55:59.217Z,20.92
2018-12-15T18:58:28.107Z,20.00
2018-12-15T19:00:55.841Z,19.77
2018-12-15T19:03:23.737Z,21.50
2018-12-15T19:05:52.487Z,20.35
2018-12-15T19:08:20.868Z,21.02
2018-12-15T19:10:48.665Z,21.37
2018-12-15T19:13:16.399Z,22.52
2018-12-15T19:15:44.102Z,21.70
2018-12-15T19:18:11.843Z,20.00
2018-12-15T19:20:40.501Z,22.62
2018-12-15T19:23:08.265Z,21.35
2018-12-15T19:25:35.990Z,21.62
2018-12-15T19:28:03.900Z,22.05
2018-12-15T19:30:31.624Z,22.67
2018-12-15T19:32:59.416Z,21.80
2018-12-15T19:35:27.777Z,22.02
2018-12-15T19:37:55.616Z,22.65
2018-12-15T19:40:23.410Z,20.68
2018-12-15T19:42:51.142Z,23.62
2018-12-15T19:45:18.982Z,19.52
2018-12-15T19:47:46.666Z,19.95
2018-12-15T19:50:14.469Z,19.17
2018-12-15T19:52:42.266Z,18.52
2018-12-15T19:55:10.021Z,18.70
2018-12-15T19:57:37.848Z,17.52
2018-12-15T20:00:07.332Z,17.85
2018-12-15T20:02:35.224Z,16.90
2018-12-15T20:05:03.112Z,18.80
2018-12-15T20:07:30.887Z,19.48
2018-12-15T20:09:58.701Z,18.20
2018-12-15T20:12:26.429Z,16.35
2018-12-15T20:14:54.229Z,17.70
2018-12-15T20:17:22.081Z,17.67
2018-12-15T20:19:49.904Z,15.78
2018-12-15T20:22:17.666Z,16.82
2018-12-15T20:24:45.359Z,15.25
2018-12-15T20:27:13.172Z,16.40
2018-12-15T20:29:42.171Z,17.77
2018-12-15T20:32:09.906Z,16.42
2018-12-15T20:34:38.622Z,15.23
2018-12-15T20:37:06.398Z,18.12
2018-12-15T20:39:34.187Z,17.80
2018-12-15T20:42:02.015Z,18.62
2018-12-15T20:44:29.755Z,17.70
2018-12-15T20:46:57.532Z,18.42
2018-12-15T20:49:25.313Z,17.35
2018-12-15T20:51:53.035Z,19.02
2018-12-15T20:54:20.838Z,16.85
2018-12-15T20:56:48.585Z,17.02
2018-12-15T20:59:16.319Z,17.02
2018-12-15T21:01:44.183Z,18.35
2018-12-15T21:04:11.892Z,17.87
2018-12-15T21:06:39.674Z,18.90
2018-12-15T21:09:07.457Z,20.80
2018-12-15T21:11:35.984Z,20.27
2018-12-15T21:14:03.810Z,19.20
2018-12-15T21:16:31.563Z,18.60
2018-12-15T21:18:59.390Z,17.00
2018-12-15T21:21:27.107Z,19.27
2018-12-15T21:23:54.918Z,19.55
2018-12-15T21:26:23.040Z,16.80
2018-12-15T21:28:50.929Z,17.95
2018-12-15T21:31:19.447Z,16.62
2018-12-15T21:33:47.248Z,17.40
2018-12-15T21:36:15.019Z,17.23
2018-12-15T21:38:42.823Z,18.77
2018-12-15T21:41:10.668Z,17.52
2018-12-15T21:43:38.448Z,17.48
2018-12-15T21:46:06.846Z,19.77
2018-12-15T21:48:34.682Z,18.00
2018-12-15T21:51:02.448Z,17.70
2018-12-15T21:53:30.150Z,20.32
2018-12-15T21:55:57.873Z,19.55
2018-12-15T21:58:25.704Z,16.95
2018-12-15T22:03:27.461Z,16.67
2018-12-15T22:05:55.203Z,18.30
2018-12-15T22:08:22.963Z,18.87
2018-12-15T22:10:50.671Z,20.48
2018-12-15T22:13:18.487Z,17.85
2018-12-15T22:15:46.195Z,18.10
2018-12-15T22:18:13.972Z,17.70
2018-12-15T22:20:41.838Z,18.92
2018-12-15T22:23:09.754Z,18.52
2018-12-15T22:25:38.288Z,19.17
2018-12-15T22:28:06.075Z,20.23
2018-12-15T22:30:33.832Z,20.45
2018-12-15T22:33:01.601Z,19.45
2018-12-15T22:35:29.321Z,16.87
2018-12-15T22:37:57.105Z,19.40
2018-12-15T22:40:25.649Z,20.68
2018-12-15T22:42:54.352Z,20.32
2018-12-15T22:45:22.196Z,19.92
2018-12-15T22:47:50.012Z,19.07
2018-12-15T22:50:17.769Z,19.60
2018-12-15T22:52:45.631Z,20.10
2018-12-15T22:55:13.981Z,22.37
2018-12-15T22:57:41.675Z,21.55
2018-12-15T23:00:10.297Z,18.90
2018-12-15T23:02:38.050Z,20.05
2018-12-15T23:05:06.329Z,19.02
2018-12-15T23:07:34.103Z,19.82
2018-12-15T23:10:02.679Z,18.25
2018-12-15T23:12:30.496Z,20.35
2018-12-15T23:14:58.280Z,20.85
2018-12-15T23:17:26.089Z,19.50
2018-12-15T23:19:54.672Z,22.05
2018-12-15T23:22:22.416Z,18.95
2018-12-15T23:24:50.217Z,20.05
2018-12-15T23:27:17.871Z,19.57
2018-12-15T23:29:45.721Z,21.00
2018-12-15T23:32:14.314Z,19.40
2018-12-15T23:34:42.118Z,20.65
2018-12-15T23:37:10.869Z,20.72
2018-12-15T23:39:38.612Z,20.90
2018-12-15T23:42:06.365Z,21.20
2018-12-15T23:44:35.059Z,22.10
2018-12-15T23:47:02.719Z,20.45
2018-12-15T23:49:31.665Z,20.52
2018-12-15T23:52:00.388Z,19.98
2018-12-15T23:54:28.195Z,20.40
2018-12-15T23:56:55.996Z,23.52
2018-12-15T23:59:24.475Z,20.40
